sensor_id;sensor_type;location;lat;lon;timestamp;P1;durP1;ratioP1;P2;durP2;ratioP2
41667;SDS011;27356;50.920;5.350;2023-10-19T00:00:30;1.77;;;1.67;;
41667;SDS011;27356;50.920;5.350;2023-10-19T00:02:59;5.63;;;1.98;;
41667;SDS011;27356;50.920;5.350;2023-10-19T00:05:28;3.25;;;1.95;;
41667;SDS011;27356;50.920;5.350;2023-10-19T00:07:55;1.83;;;1.70;;
41667;SDS011;27356;50.920;5.350;2023-10-19T00:10:25;2.90;;;2.05;;
41667;SDS011;27356;50.920;5.350;2023-10-19T00:12:57;2.00;;;1.80;;
41667;SDS011;27356;50.920;5.350;2023-10-19T00:15:29;2.80;;;2.10;;
41667;SDS011;27356;50.920;5.350;2023-10-19T00:17:57;4.68;;;1.88;;
41667;SDS011;27356;50.920;5.350;2023-10-19T00:20:31;2.58;;;1.80;;
41667;SDS011;27356;50.920;5.350;2023-10-19T00:23:06;2.08;;;1.77;;
41667;SDS011;27356;50.920;5.350;2023-10-19T00:25:32;3.92;;;1.70;;
41667;SDS011;27356;50.920;5.350;2023-10-19T00:28:06;1.60;;;1.50;;
41667;SDS011;27356;50.920;5.350;2023-10-19T00:30:34;3.28;;;1.50;;
41667;SDS011;27356;50.920;5.350;2023-10-19T00:33:02;1.85;;;1.58;;
41667;SDS011;27356;50.920;5.350;2023-10-19T00:35:35;4.28;;;1.27;;
41667;SDS011;27356;50.920;5.350;2023-10-19T00:38:02;6.28;;;1.67;;
41667;SDS011;27356;50.920;5.350;2023-10-19T00:41:03;3.15;;;1.38;;
41667;SDS011;27356;50.920;5.350;2023-10-19T00:43:37;0.98;;;0.98;;
41667;SDS011;27356;50.920;5.350;2023-10-19T00:46:13;6.60;;;1.17;;
41667;SDS011;27356;50.920;5.350;2023-10-19T00:48:51;1.25;;;0.90;;
41667;SDS011;27356;50.920;5.350;2023-10-19T00:51:22;1.55;;;0.65;;
41667;SDS011;27356;50.920;5.350;2023-10-19T00:54:02;1.95;;;0.70;;
41667;SDS011;27356;50.920;5.350;2023-10-19T00:56:46;7.40;;;0.90;;
41667;SDS011;27356;50.920;5.350;2023-10-19T00:59:17;9.30;;;0.65;;
41667;SDS011;27356;50.920;5.350;2023-10-19T01:01:53;2.70;;;0.60;;
41667;SDS011;27356;50.920;5.350;2023-10-19T01:04:21;1.57;;;0.43;;
41667;SDS011;27356;50.920;5.350;2023-10-19T01:06:51;2.70;;;0.75;;
41667;SDS011;27356;50.920;5.350;2023-10-19T01:09:25;1.70;;;0.30;;
41667;SDS011;27356;50.920;5.350;2023-10-19T01:11:52;1.48;;;0.40;;
41667;SDS011;27356;50.920;5.350;2023-10-19T01:14:22;2.97;;;0.60;;
41667;SDS011;27356;50.920;5.350;2023-10-19T01:16:52;2.38;;;0.50;;
41667;SDS011;27356;50.920;5.350;2023-10-19T01:19:22;5.70;;;0.43;;
41667;SDS011;27356;50.920;5.350;2023-10-19T01:21:48;5.88;;;0.68;;
41667;SDS011;27356;50.920;5.350;2023-10-19T01:24:21;2.38;;;0.30;;
41667;SDS011;27356;50.920;5.350;2023-10-19T01:27:05;1.75;;;0.20;;
41667;SDS011;27356;50.920;5.350;2023-10-19T01:29:34;3.60;;;0.77;;
41667;SDS011;27356;50.920;5.350;2023-10-19T01:32:02;2.30;;;0.35;;
41667;SDS011;27356;50.920;5.350;2023-10-19T01:34:34;3.10;;;0.40;;
41667;SDS011;27356;50.920;5.350;2023-10-19T01:37:00;3.33;;;0.65;;
41667;SDS011;27356;50.920;5.350;2023-10-19T01:39:33;5.50;;;0.75;;
41667;SDS011;27356;50.920;5.350;2023-10-19T01:42:04;2.50;;;0.40;;
41667;SDS011;27356;50.920;5.350;2023-10-19T01:44:30;2.25;;;0.40;;
41667;SDS011;27356;50.920;5.350;2023-10-19T01:46:56;2.78;;;0.70;;
41667;SDS011;27356;50.920;5.350;2023-10-19T01:49:22;2.28;;;0.55;;
41667;SDS011;27356;50.920;5.350;2023-10-19T01:51:51;0.75;;;0.30;;
41667;SDS011;27356;50.920;5.350;2023-10-19T01:54:19;2.08;;;0.50;;
41667;SDS011;27356;50.920;5.350;2023-10-19T01:56:55;2.83;;;0.40;;
41667;SDS011;27356;50.920;5.350;2023-10-19T01:59:25;1.95;;;0.68;;
41667;SDS011;27356;50.920;5.350;2023-10-19T02:01:54;2.15;;;0.40;;
41667;SDS011;27356;50.920;5.350;2023-10-19T02:04:21;6.18;;;1.55;;
41667;SDS011;27356;50.920;5.350;2023-10-19T02:06:47;1.67;;;0.28;;
41667;SDS011;27356;50.920;5.350;2023-10-19T02:09:14;1.70;;;0.22;;
41667;SDS011;27356;50.920;5.350;2023-10-19T02:11:54;3.25;;;0.40;;
41667;SDS011;27356;50.920;5.350;2023-10-19T02:14:22;3.45;;;0.73;;
41667;SDS011;27356;50.920;5.350;2023-10-19T02:16:50;3.83;;;0.63;;
41667;SDS011;27356;50.920;5.350;2023-10-19T02:19:21;0.77;;;0.32;;
41667;SDS011;27356;50.920;5.350;2023-10-19T02:21:48;1.75;;;0.38;;
41667;SDS011;27356;50.920;5.350;2023-10-19T02:24:15;2.47;;;0.32;;
41667;SDS011;27356;50.920;5.350;2023-10-19T02:26:41;1.40;;;0.32;;
41667;SDS011;27356;50.920;5.350;2023-10-19T02:29:08;4.68;;;0.50;;
41667;SDS011;27356;50.920;5.350;2023-10-19T02:31:39;4.13;;;0.60;;
41667;SDS011;27356;50.920;5.350;2023-10-19T02:34:06;1.00;;;0.20;;
41667;SDS011;27356;50.920;5.350;2023-10-19T02:36:35;2.67;;;0.50;;
41667;SDS011;27356;50.920;5.350;2023-10-19T02:39:06;3.38;;;0.40;;
41667;SDS011;27356;50.920;5.350;2023-10-19T02:41:39;3.35;;;0.43;;
41667;SDS011;27356;50.920;5.350;2023-10-19T02:44:17;1.77;;;0.30;;
41667;SDS011;27356;50.920;5.350;2023-10-19T02:46:46;2.95;;;0.60;;
41667;SDS011;27356;50.920;5.350;2023-10-19T02:49:23;1.33;;;0.25;;
41667;SDS011;27356;50.920;5.350;2023-10-19T02:51:51;3.15;;;0.60;;
41667;SDS011;27356;50.920;5.350;2023-10-19T02:54:18;4.95;;;0.60;;
41667;SDS011;27356;50.920;5.350;2023-10-19T02:56:50;5.00;;;0.80;;
41667;SDS011;27356;50.920;5.350;2023-10-19T02:59:22;4.13;;;0.47;;
41667;SDS011;27356;50.920;5.350;2023-10-19T03:01:50;1.70;;;0.60;;
41667;SDS011;27356;50.920;5.350;2023-10-19T03:04:17;2.97;;;0.40;;
41667;SDS011;27356;50.920;5.350;2023-10-19T03:06:42;3.00;;;0.50;;
41667;SDS011;27356;50.920;5.350;2023-10-19T03:09:09;4.93;;;0.40;;
41667;SDS011;27356;50.920;5.350;2023-10-19T03:11:41;5.22;;;0.52;;
41667;SDS011;27356;50.920;5.350;2023-10-19T03:14:09;5.60;;;0.52;;
41667;SDS011;27356;50.920;5.350;2023-10-19T03:16:36;0.95;;;0.30;;
41667;SDS011;27356;50.920;5.350;2023-10-19T03:19:03;5.40;;;0.73;;
41667;SDS011;27356;50.920;5.350;2023-10-19T03:21:29;5.40;;;0.80;;
41667;SDS011;27356;50.920;5.350;2023-10-19T03:23:59;2.65;;;0.35;;
41667;SDS011;27356;50.920;5.350;2023-10-19T03:26:37;3.25;;;0.57;;
41667;SDS011;27356;50.920;5.350;2023-10-19T03:29:04;2.97;;;0.40;;
41667;SDS011;27356;50.920;5.350;2023-10-19T03:31:37;1.85;;;0.55;;
41667;SDS011;27356;50.920;5.350;2023-10-19T03:34:08;8.53;;;0.93;;
41667;SDS011;27356;50.920;5.350;2023-10-19T03:36:35;2.50;;;0.77;;
41667;SDS011;27356;50.920;5.350;2023-10-19T03:39:01;3.28;;;0.43;;
41667;SDS011;27356;50.920;5.350;2023-10-19T03:41:36;3.10;;;0.60;;
41667;SDS011;27356;50.920;5.350;2023-10-19T03:44:04;4.50;;;0.47;;
41667;SDS011;27356;50.920;5.350;2023-10-19T03:46:30;4.05;;;0.65;;
41667;SDS011;27356;50.920;5.350;2023-10-19T03:49:00;6.93;;;0.93;;
41667;SDS011;27356;50.920;5.350;2023-10-19T03:51:46;4.75;;;0.80;;
41667;SDS011;27356;50.920;5.350;2023-10-19T03:54:44;10.63;;;1.27;;
41667;SDS011;27356;50.920;5.350;2023-10-19T03:57:10;4.90;;;0.55;;
41667;SDS011;27356;50.920;5.350;2023-10-19T03:59:45;7.22;;;0.75;;
41667;SDS011;27356;50.920;5.350;2023-10-19T04:02:15;4.32;;;0.52;;
41667;SDS011;27356;50.920;5.350;2023-10-19T04:04:41;6.57;;;0.52;;
41667;SDS011;27356;50.920;5.350;2023-10-19T04:07:11;2.97;;;0.43;;
41667;SDS011;27356;50.920;5.350;2023-10-19T04:09:56;3.63;;;0.60;;
41667;SDS011;27356;50.920;5.350;2023-10-19T04:12:31;5.10;;;0.75;;
41667;SDS011;27356;50.920;5.350;2023-10-19T04:14:58;6.90;;;1.08;;
41667;SDS011;27356;50.920;5.350;2023-10-19T04:17:46;10.48;;;0.80;;
41667;SDS011;27356;50.920;5.350;2023-10-19T04:20:14;6.30;;;1.13;;
41667;SDS011;27356;50.920;5.350;2023-10-19T04:22:42;7.07;;;0.70;;
41667;SDS011;27356;50.920;5.350;2023-10-19T04:25:15;4.75;;;0.85;;
41667;SDS011;27356;50.920;5.350;2023-10-19T04:27:44;2.33;;;0.60;;
41667;SDS011;27356;50.920;5.350;2023-10-19T04:30:11;2.63;;;0.60;;
41667;SDS011;27356;50.920;5.350;2023-10-19T04:32:41;2.60;;;0.60;;
41667;SDS011;27356;50.920;5.350;2023-10-19T04:35:07;11.27;;;1.13;;
41667;SDS011;27356;50.920;5.350;2023-10-19T04:37:38;4.28;;;0.57;;
41667;SDS011;27356;50.920;5.350;2023-10-19T04:40:07;7.28;;;1.05;;
41667;SDS011;27356;50.920;5.350;2023-10-19T04:42:34;4.05;;;0.80;;
41667;SDS011;27356;50.920;5.350;2023-10-19T04:45:02;3.53;;;0.75;;
41667;SDS011;27356;50.920;5.350;2023-10-19T04:47:28;6.20;;;1.00;;
41667;SDS011;27356;50.920;5.350;2023-10-19T04:49:54;3.08;;;0.68;;
41667;SDS011;27356;50.920;5.350;2023-10-19T04:52:20;4.82;;;0.80;;
41667;SDS011;27356;50.920;5.350;2023-10-19T04:54:46;5.00;;;0.80;;
41667;SDS011;27356;50.920;5.350;2023-10-19T04:57:11;5.90;;;1.98;;
41667;SDS011;27356;50.920;5.350;2023-10-19T04:59:37;7.63;;;1.15;;
41667;SDS011;27356;50.920;5.350;2023-10-19T05:02:03;7.72;;;1.02;;
41667;SDS011;27356;50.920;5.350;2023-10-19T05:04:30;6.50;;;0.80;;
41667;SDS011;27356;50.920;5.350;2023-10-19T05:06:56;2.72;;;0.77;;
41667;SDS011;27356;50.920;5.350;2023-10-19T05:09:22;5.93;;;0.98;;
41667;SDS011;27356;50.920;5.350;2023-10-19T05:11:47;4.32;;;0.70;;
41667;SDS011;27356;50.920;5.350;2023-10-19T05:14:13;4.80;;;0.70;;
41667;SDS011;27356;50.920;5.350;2023-10-19T05:16:39;3.05;;;0.82;;
41667;SDS011;27356;50.920;5.350;2023-10-19T05:19:05;4.03;;;0.60;;
41667;SDS011;27356;50.920;5.350;2023-10-19T05:21:31;8.35;;;1.05;;
41667;SDS011;27356;50.920;5.350;2023-10-19T05:23:58;3.75;;;0.65;;
41667;SDS011;27356;50.920;5.350;2023-10-19T05:26:27;4.63;;;0.95;;
41667;SDS011;27356;50.920;5.350;2023-10-19T05:28:53;4.55;;;1.00;;
41667;SDS011;27356;50.920;5.350;2023-10-19T05:31:19;4.75;;;0.98;;
41667;SDS011;27356;50.920;5.350;2023-10-19T05:33:45;5.53;;;1.10;;
41667;SDS011;27356;50.920;5.350;2023-10-19T05:36:16;3.72;;;0.77;;
41667;SDS011;27356;50.920;5.350;2023-10-19T05:39:04;3.40;;;0.57;;
41667;SDS011;27356;50.920;5.350;2023-10-19T05:41:33;6.18;;;0.90;;
41667;SDS011;27356;50.920;5.350;2023-10-19T05:44:03;4.43;;;0.80;;
41667;SDS011;27356;50.920;5.350;2023-10-19T05:46:28;5.03;;;0.88;;
41667;SDS011;27356;50.920;5.350;2023-10-19T05:48:54;5.63;;;1.42;;
41667;SDS011;27356;50.920;5.350;2023-10-19T05:51:28;5.80;;;1.00;;
41667;SDS011;27356;50.920;5.350;2023-10-19T05:53:54;6.57;;;1.00;;
41667;SDS011;27356;50.920;5.350;2023-10-19T05:56:27;2.30;;;0.95;;
41667;SDS011;27356;50.920;5.350;2023-10-19T05:58:53;4.82;;;1.17;;
41667;SDS011;27356;50.920;5.350;2023-10-19T06:01:19;3.72;;;0.60;;
41667;SDS011;27356;50.920;5.350;2023-10-19T06:03:47;2.75;;;0.70;;
41667;SDS011;27356;50.920;5.350;2023-10-19T06:06:12;7.15;;;0.80;;
41667;SDS011;27356;50.920;5.350;2023-10-19T06:08:39;4.65;;;0.95;;
41667;SDS011;27356;50.920;5.350;2023-10-19T06:11:05;4.93;;;0.70;;
41667;SDS011;27356;50.920;5.350;2023-10-19T06:13:31;5.55;;;1.10;;
41667;SDS011;27356;50.920;5.350;2023-10-19T06:15:57;3.83;;;0.85;;
41667;SDS011;27356;50.920;5.350;2023-10-19T06:18:23;8.27;;;0.70;;
41667;SDS011;27356;50.920;5.350;2023-10-19T06:20:49;5.35;;;1.52;;
41667;SDS011;27356;50.920;5.350;2023-10-19T06:23:16;6.13;;;0.68;;
41667;SDS011;27356;50.920;5.350;2023-10-19T06:25:43;3.65;;;0.93;;
41667;SDS011;27356;50.920;5.350;2023-10-19T06:28:09;9.13;;;1.73;;
41667;SDS011;27356;50.920;5.350;2023-10-19T06:30:36;8.57;;;0.80;;
41667;SDS011;27356;50.920;5.350;2023-10-19T06:33:02;3.63;;;0.60;;
41667;SDS011;27356;50.920;5.350;2023-10-19T06:35:29;7.82;;;0.95;;
41667;SDS011;27356;50.920;5.350;2023-10-19T06:38:01;4.53;;;0.52;;
41667;SDS011;27356;50.920;5.350;2023-10-19T06:40:29;7.65;;;0.88;;
41667;SDS011;27356;50.920;5.350;2023-10-19T06:42:56;9.52;;;0.88;;
41667;SDS011;27356;50.920;5.350;2023-10-19T06:45:23;5.03;;;0.70;;
41667;SDS011;27356;50.920;5.350;2023-10-19T06:47:50;3.20;;;0.90;;
41667;SDS011;27356;50.920;5.350;2023-10-19T06:50:17;4.10;;;0.52;;
41667;SDS011;27356;50.920;5.350;2023-10-19T06:52:47;8.60;;;1.00;;
41667;SDS011;27356;50.920;5.350;2023-10-19T06:55:13;7.65;;;1.10;;
41667;SDS011;27356;50.920;5.350;2023-10-19T06:57:46;5.38;;;0.80;;
41667;SDS011;27356;50.920;5.350;2023-10-19T07:00:14;6.68;;;0.80;;
41667;SDS011;27356;50.920;5.350;2023-10-19T07:02:44;8.55;;;0.95;;
41667;SDS011;27356;50.920;5.350;2023-10-19T07:05:20;4.63;;;0.90;;
41667;SDS011;27356;50.920;5.350;2023-10-19T07:07:47;3.38;;;1.02;;
41667;SDS011;27356;50.920;5.350;2023-10-19T07:10:17;8.18;;;1.48;;
41667;SDS011;27356;50.920;5.350;2023-10-19T07:12:45;4.78;;;0.88;;
41667;SDS011;27356;50.920;5.350;2023-10-19T07:15:12;6.03;;;0.80;;
41667;SDS011;27356;50.920;5.350;2023-10-19T07:17:44;9.57;;;1.20;;
41667;SDS011;27356;50.920;5.350;2023-10-19T07:20:11;2.85;;;1.15;;
41667;SDS011;27356;50.920;5.350;2023-10-19T07:22:57;6.63;;;1.20;;
41667;SDS011;27356;50.920;5.350;2023-10-19T07:25:42;5.47;;;0.98;;
41667;SDS011;27356;50.920;5.350;2023-10-19T07:28:09;5.10;;;1.10;;
41667;SDS011;27356;50.920;5.350;2023-10-19T07:30:35;4.90;;;0.80;;
41667;SDS011;27356;50.920;5.350;2023-10-19T07:33:02;7.63;;;1.20;;
41667;SDS011;27356;50.920;5.350;2023-10-19T07:35:33;6.22;;;1.10;;
41667;SDS011;27356;50.920;5.350;2023-10-19T07:38:02;5.22;;;1.00;;
41667;SDS011;27356;50.920;5.350;2023-10-19T07:40:29;1.88;;;0.63;;
41667;SDS011;27356;50.920;5.350;2023-10-19T07:42:55;4.47;;;0.85;;
41667;SDS011;27356;50.920;5.350;2023-10-19T07:45:22;4.22;;;0.60;;
41667;SDS011;27356;50.920;5.350;2023-10-19T07:47:47;7.20;;;1.75;;
41667;SDS011;27356;50.920;5.350;2023-10-19T07:50:14;7.88;;;1.10;;
41667;SDS011;27356;50.920;5.350;2023-10-19T07:52:51;6.20;;;0.90;;
41667;SDS011;27356;50.920;5.350;2023-10-19T07:55:19;3.03;;;0.95;;
41667;SDS011;27356;50.920;5.350;2023-10-19T07:57:49;9.25;;;0.80;;
41667;SDS011;27356;50.920;5.350;2023-10-19T08:00:15;3.97;;;0.88;;
41667;SDS011;27356;50.920;5.350;2023-10-19T08:02:42;4.85;;;0.85;;
41667;SDS011;27356;50.920;5.350;2023-10-19T08:05:15;3.80;;;0.63;;
41667;SDS011;27356;50.920;5.350;2023-10-19T08:07:44;5.10;;;1.08;;
41667;SDS011;27356;50.920;5.350;2023-10-19T08:10:17;7.05;;;1.02;;
41667;SDS011;27356;50.920;5.350;2023-10-19T08:12:44;6.00;;;0.90;;
41667;SDS011;27356;50.920;5.350;2023-10-19T08:15:14;2.05;;;0.80;;
41667;SDS011;27356;50.920;5.350;2023-10-19T08:17:41;7.07;;;1.00;;
41667;SDS011;27356;50.920;5.350;2023-10-19T08:20:10;4.30;;;0.80;;
41667;SDS011;27356;50.920;5.350;2023-10-19T08:22:53;7.47;;;1.30;;
41667;SDS011;27356;50.920;5.350;2023-10-19T08:25:21;6.70;;;1.38;;
41667;SDS011;27356;50.920;5.350;2023-10-19T08:27:48;6.43;;;0.90;;
41667;SDS011;27356;50.920;5.350;2023-10-19T08:30:19;2.97;;;0.80;;
41667;SDS011;27356;50.920;5.350;2023-10-19T08:32:46;7.20;;;1.17;;
41667;SDS011;27356;50.920;5.350;2023-10-19T08:35:17;4.63;;;1.05;;
41667;SDS011;27356;50.920;5.350;2023-10-19T08:37:46;7.22;;;1.42;;
41667;SDS011;27356;50.920;5.350;2023-10-19T08:40:13;5.47;;;1.25;;
41667;SDS011;27356;50.920;5.350;2023-10-19T08:42:43;4.95;;;1.00;;
41667;SDS011;27356;50.920;5.350;2023-10-19T08:45:11;9.02;;;1.33;;
41667;SDS011;27356;50.920;5.350;2023-10-19T08:47:48;5.97;;;1.08;;
41667;SDS011;27356;50.920;5.350;2023-10-19T08:50:21;6.35;;;1.77;;
41667;SDS011;27356;50.920;5.350;2023-10-19T08:52:55;6.35;;;0.82;;
41667;SDS011;27356;50.920;5.350;2023-10-19T08:55:22;7.20;;;1.20;;
41667;SDS011;27356;50.920;5.350;2023-10-19T08:57:48;5.60;;;1.00;;
41667;SDS011;27356;50.920;5.350;2023-10-19T09:00:15;5.72;;;0.93;;
41667;SDS011;27356;50.920;5.350;2023-10-19T09:02:44;11.88;;;1.27;;
41667;SDS011;27356;50.920;5.350;2023-10-19T09:05:10;8.82;;;1.67;;
41667;SDS011;27356;50.920;5.350;2023-10-19T09:07:48;7.50;;;1.08;;
41667;SDS011;27356;50.920;5.350;2023-10-19T09:10:27;5.05;;;1.00;;
41667;SDS011;27356;50.920;5.350;2023-10-19T09:13:05;3.78;;;1.10;;
41667;SDS011;27356;50.920;5.350;2023-10-19T09:15:38;5.63;;;1.00;;
41667;SDS011;27356;50.920;5.350;2023-10-19T09:18:38;8.50;;;1.20;;
41667;SDS011;27356;50.920;5.350;2023-10-19T09:23:32;8.80;;;1.15;;
41667;SDS011;27356;50.920;5.350;2023-10-19T09:25:59;11.68;;;1.77;;
41667;SDS011;27356;50.920;5.350;2023-10-19T09:28:29;5.07;;;1.30;;
41667;SDS011;27356;50.920;5.350;2023-10-19T09:30:55;7.75;;;1.13;;
41667;SDS011;27356;50.920;5.350;2023-10-19T09:33:21;8.88;;;1.50;;
41667;SDS011;27356;50.920;5.350;2023-10-19T09:35:49;6.57;;;1.10;;
41667;SDS011;27356;50.920;5.350;2023-10-19T09:38:21;6.97;;;1.20;;
41667;SDS011;27356;50.920;5.350;2023-10-19T09:40:51;7.57;;;1.52;;
41667;SDS011;27356;50.920;5.350;2023-10-19T09:43:24;7.13;;;1.15;;
41667;SDS011;27356;50.920;5.350;2023-10-19T09:46:00;8.98;;;1.33;;
41667;SDS011;27356;50.920;5.350;2023-10-19T09:48:31;6.97;;;1.10;;
41667;SDS011;27356;50.920;5.350;2023-10-19T09:51:00;10.70;;;1.83;;
41667;SDS011;27356;50.920;5.350;2023-10-19T09:53:28;8.23;;;1.33;;
41667;SDS011;27356;50.920;5.350;2023-10-19T09:55:58;12.85;;;1.30;;
41667;SDS011;27356;50.920;5.350;2023-10-19T09:58:31;9.07;;;1.20;;
41667;SDS011;27356;50.920;5.350;2023-10-19T10:01:02;7.78;;;1.33;;
41667;SDS011;27356;50.920;5.350;2023-10-19T10:06:08;5.18;;;1.15;;
41667;SDS011;27356;50.920;5.350;2023-10-19T10:08:38;7.57;;;1.00;;
41667;SDS011;27356;50.920;5.350;2023-10-19T10:11:19;6.70;;;1.30;;
41667;SDS011;27356;50.920;5.350;2023-10-19T10:13:46;9.88;;;1.20;;
41667;SDS011;27356;50.920;5.350;2023-10-19T10:16:19;14.88;;;1.33;;
41667;SDS011;27356;50.920;5.350;2023-10-19T10:18:47;7.30;;;1.65;;
41667;SDS011;27356;50.920;5.350;2023-10-19T10:21:19;9.60;;;1.77;;
41667;SDS011;27356;50.920;5.350;2023-10-19T10:23:49;10.23;;;1.40;;
41667;SDS011;27356;50.920;5.350;2023-10-19T10:26:21;8.43;;;1.52;;
41667;SDS011;27356;50.920;5.350;2023-10-19T10:31:45;4.22;;;1.30;;
41667;SDS011;27356;50.920;5.350;2023-10-19T10:37:03;9.07;;;1.08;;
41667;SDS011;27356;50.920;5.350;2023-10-19T10:39:32;6.57;;;1.08;;
41667;SDS011;27356;50.920;5.350;2023-10-19T10:42:02;10.65;;;1.40;;
41667;SDS011;27356;50.920;5.350;2023-10-19T10:44:43;10.20;;;1.67;;
41667;SDS011;27356;50.920;5.350;2023-10-19T10:47:09;8.77;;;1.20;;
41667;SDS011;27356;50.920;5.350;2023-10-19T10:49:54;10.00;;;1.50;;
41667;SDS011;27356;50.920;5.350;2023-10-19T10:52:28;7.35;;;2.05;;
41667;SDS011;27356;50.920;5.350;2023-10-19T10:54:55;4.70;;;1.30;;
41667;SDS011;27356;50.920;5.350;2023-10-19T10:57:22;7.82;;;1.33;;
41667;SDS011;27356;50.920;5.350;2023-10-19T11:00:00;6.60;;;1.75;;
41667;SDS011;27356;50.920;5.350;2023-10-19T11:02:29;7.70;;;1.92;;
41667;SDS011;27356;50.920;5.350;2023-10-19T11:04:54;8.55;;;1.83;;
41667;SDS011;27356;50.920;5.350;2023-10-19T11:07:20;11.27;;;1.98;;
41667;SDS011;27356;50.920;5.350;2023-10-19T11:09:46;6.30;;;1.08;;
41667;SDS011;27356;50.920;5.350;2023-10-19T11:12:13;7.60;;;1.25;;
41667;SDS011;27356;50.920;5.350;2023-10-19T11:18:06;5.47;;;1.35;;
41667;SDS011;27356;50.920;5.350;2023-10-19T11:20:35;6.63;;;1.25;;
41667;SDS011;27356;50.920;5.350;2023-10-19T11:23:01;6.95;;;1.83;;
41667;SDS011;27356;50.920;5.350;2023-10-19T11:25:28;9.18;;;2.25;;
41667;SDS011;27356;50.920;5.350;2023-10-19T11:27:55;6.60;;;1.38;;
41667;SDS011;27356;50.920;5.350;2023-10-19T11:30:23;6.28;;;1.20;;
41667;SDS011;27356;50.920;5.350;2023-10-19T11:32:58;6.95;;;1.30;;
41667;SDS011;27356;50.920;5.350;2023-10-19T11:35:27;10.85;;;1.88;;
41667;SDS011;27356;50.920;5.350;2023-10-19T11:37:58;9.98;;;2.25;;
41667;SDS011;27356;50.920;5.350;2023-10-19T11:40:26;8.95;;;0.90;;
41667;SDS011;27356;50.920;5.350;2023-10-19T11:42:52;12.73;;;1.70;;
41667;SDS011;27356;50.920;5.350;2023-10-19T11:45:22;4.85;;;1.08;;
41667;SDS011;27356;50.920;5.350;2023-10-19T11:47:52;10.82;;;1.83;;
41667;SDS011;27356;50.920;5.350;2023-10-19T11:50:18;4.55;;;0.90;;
41667;SDS011;27356;50.920;5.350;2023-10-19T11:52:44;8.40;;;1.88;;
41667;SDS011;27356;50.920;5.350;2023-10-19T11:55:11;5.13;;;1.00;;
41667;SDS011;27356;50.920;5.350;2023-10-19T11:57:40;4.30;;;0.95;;
41667;SDS011;27356;50.920;5.350;2023-10-19T12:00:12;2.67;;;0.88;;
41667;SDS011;27356;50.920;5.350;2023-10-19T12:02:58;7.00;;;1.20;;
41667;SDS011;27356;50.920;5.350;2023-10-19T12:05:24;7.40;;;1.00;;
41667;SDS011;27356;50.920;5.350;2023-10-19T12:07:50;7.18;;;0.82;;
41667;SDS011;27356;50.920;5.350;2023-10-19T12:10:17;10.10;;;1.80;;
41667;SDS011;27356;50.920;5.350;2023-10-19T12:12:45;4.80;;;0.90;;
41667;SDS011;27356;50.920;5.350;2023-10-19T12:15:11;10.23;;;1.55;;
41667;SDS011;27356;50.920;5.350;2023-10-19T12:17:37;4.13;;;0.93;;
41667;SDS011;27356;50.920;5.350;2023-10-19T12:20:03;5.45;;;0.93;;
41667;SDS011;27356;50.920;5.350;2023-10-19T12:22:31;5.93;;;1.13;;
41667;SDS011;27356;50.920;5.350;2023-10-19T12:25:03;5.30;;;1.05;;
41667;SDS011;27356;50.920;5.350;2023-10-19T12:27:30;5.10;;;1.10;;
41667;SDS011;27356;50.920;5.350;2023-10-19T12:29:55;6.32;;;1.20;;
41667;SDS011;27356;50.920;5.350;2023-10-19T12:32:24;6.05;;;1.15;;
41667;SDS011;27356;50.920;5.350;2023-10-19T12:34:51;4.20;;;0.98;;
41667;SDS011;27356;50.920;5.350;2023-10-19T12:37:22;4.95;;;0.95;;
41667;SDS011;27356;50.920;5.350;2023-10-19T12:39:49;6.35;;;0.90;;
41667;SDS011;27356;50.920;5.350;2023-10-19T12:42:16;4.72;;;0.95;;
41667;SDS011;27356;50.920;5.350;2023-10-19T12:44:42;3.78;;;1.27;;
41667;SDS011;27356;50.920;5.350;2023-10-19T12:47:09;6.53;;;1.02;;
41667;SDS011;27356;50.920;5.350;2023-10-19T12:49:38;4.50;;;1.48;;
41667;SDS011;27356;50.920;5.350;2023-10-19T12:52:05;6.57;;;1.30;;
41667;SDS011;27356;50.920;5.350;2023-10-19T12:54:35;5.80;;;1.00;;
41667;SDS011;27356;50.920;5.350;2023-10-19T12:57:02;7.00;;;1.48;;
41667;SDS011;27356;50.920;5.350;2023-10-19T12:59:35;6.28;;;1.20;;
41667;SDS011;27356;50.920;5.350;2023-10-19T13:02:05;7.10;;;1.50;;
41667;SDS011;27356;50.920;5.350;2023-10-19T13:04:33;8.23;;;1.55;;
41667;SDS011;27356;50.920;5.350;2023-10-19T13:06:59;5.05;;;1.30;;
41667;SDS011;27356;50.920;5.350;2023-10-19T13:09:27;7.45;;;1.35;;
41667;SDS011;27356;50.920;5.350;2023-10-19T13:11:59;6.38;;;1.67;;
41667;SDS011;27356;50.920;5.350;2023-10-19T13:14:25;6.43;;;1.42;;
41667;SDS011;27356;50.920;5.350;2023-10-19T13:16:52;3.95;;;1.02;;
41667;SDS011;27356;50.920;5.350;2023-10-19T13:19:19;6.13;;;0.90;;
41667;SDS011;27356;50.920;5.350;2023-10-19T13:21:49;6.93;;;1.08;;
41667;SDS011;27356;50.920;5.350;2023-10-19T13:24:15;5.07;;;0.70;;
41667;SDS011;27356;50.920;5.350;2023-10-19T13:26:41;3.05;;;0.75;;
41667;SDS011;27356;50.920;5.350;2023-10-19T13:29:11;4.53;;;1.35;;
41667;SDS011;27356;50.920;5.350;2023-10-19T13:31:37;5.20;;;1.13;;
41667;SDS011;27356;50.920;5.350;2023-10-19T13:34:02;12.85;;;1.33;;
41667;SDS011;27356;50.920;5.350;2023-10-19T13:36:31;7.70;;;1.10;;
41667;SDS011;27356;50.920;5.350;2023-10-19T13:38:56;6.03;;;1.25;;
41667;SDS011;27356;50.920;5.350;2023-10-19T13:41:23;6.18;;;1.13;;
41667;SDS011;27356;50.920;5.350;2023-10-19T13:43:49;6.70;;;2.08;;
41667;SDS011;27356;50.920;5.350;2023-10-19T13:46:15;5.10;;;1.13;;
41667;SDS011;27356;50.920;5.350;2023-10-19T13:48:40;3.05;;;1.17;;
41667;SDS011;27356;50.920;5.350;2023-10-19T13:51:06;6.40;;;1.20;;
41667;SDS011;27356;50.920;5.350;2023-10-19T13:53:38;6.88;;;1.45;;
41667;SDS011;27356;50.920;5.350;2023-10-19T13:56:08;4.65;;;1.13;;
41667;SDS011;27356;50.920;5.350;2023-10-19T13:58:34;4.20;;;1.67;;
41667;SDS011;27356;50.920;5.350;2023-10-19T14:01:00;9.30;;;1.45;;
41667;SDS011;27356;50.920;5.350;2023-10-19T14:03:28;3.80;;;1.20;;
41667;SDS011;27356;50.920;5.350;2023-10-19T14:05:55;6.55;;;1.23;;
41667;SDS011;27356;50.920;5.350;2023-10-19T14:08:21;6.00;;;1.25;;
41667;SDS011;27356;50.920;5.350;2023-10-19T14:10:47;3.25;;;0.88;;
41667;SDS011;27356;50.920;5.350;2023-10-19T14:13:13;3.40;;;1.10;;
41667;SDS011;27356;50.920;5.350;2023-10-19T14:15:42;4.13;;;1.25;;
41667;SDS011;27356;50.920;5.350;2023-10-19T14:18:08;4.97;;;0.90;;
41667;SDS011;27356;50.920;5.350;2023-10-19T14:20:36;5.00;;;0.95;;
41667;SDS011;27356;50.920;5.350;2023-10-19T14:23:04;4.47;;;0.90;;
41667;SDS011;27356;50.920;5.350;2023-10-19T14:25:30;3.90;;;0.63;;
41667;SDS011;27356;50.920;5.350;2023-10-19T14:27:56;4.88;;;1.00;;
41667;SDS011;27356;50.920;5.350;2023-10-19T14:30:26;3.30;;;0.73;;
41667;SDS011;27356;50.920;5.350;2023-10-19T14:32:56;3.55;;;0.90;;
41667;SDS011;27356;50.920;5.350;2023-10-19T14:35:23;6.82;;;1.10;;
41667;SDS011;27356;50.920;5.350;2023-10-19T14:37:51;4.15;;;1.23;;
41667;SDS011;27356;50.920;5.350;2023-10-19T14:40:20;2.80;;;0.98;;
41667;SDS011;27356;50.920;5.350;2023-10-19T14:42:54;2.83;;;1.00;;
41667;SDS011;27356;50.920;5.350;2023-10-19T14:45:23;4.40;;;0.90;;
41667;SDS011;27356;50.920;5.350;2023-10-19T14:47:54;5.30;;;1.02;;
41667;SDS011;27356;50.920;5.350;2023-10-19T14:50:20;5.25;;;0.65;;
41667;SDS011;27356;50.920;5.350;2023-10-19T14:52:48;2.80;;;0.80;;
41667;SDS011;27356;50.920;5.350;2023-10-19T14:55:15;2.55;;;0.80;;
41667;SDS011;27356;50.920;5.350;2023-10-19T14:57:44;2.65;;;1.00;;
41667;SDS011;27356;50.920;5.350;2023-10-19T15:00:14;2.72;;;0.85;;
41667;SDS011;27356;50.920;5.350;2023-10-19T15:02:44;2.80;;;1.10;;
41667;SDS011;27356;50.920;5.350;2023-10-19T15:05:10;4.55;;;1.23;;
41667;SDS011;27356;50.920;5.350;2023-10-19T15:07:39;3.53;;;1.10;;
41667;SDS011;27356;50.920;5.350;2023-10-19T15:10:07;5.25;;;1.10;;
41667;SDS011;27356;50.920;5.350;2023-10-19T15:12:35;4.93;;;0.82;;
41667;SDS011;27356;50.920;5.350;2023-10-19T15:15:01;2.70;;;1.08;;